Time;durP1;ratioP1;P1;durP2;ratioP2;P2;SDS_P1;SDS_P2;PMS_P1;PMS_P2;Temp;Humidity;BMP_temperature;BMP_pressure;BME280_temperature;BME280_humidity;BME280_pressure;Samples;Min_cycle;Max_cycle;Signal;HPM_P1;HPM_P2
2022/05/23 00:01:40;;;;;;;6.13;2.97;;;18.10;70.70;;;;;;5019126;28;20969;-72
2022/05/23 00:04:07;;;;;;;5.50;2.47;;;18.10;70.90;;;;;;5018532;28;20460;-71
2022/05/23 00:06:37;;;;;;;4.33;2.30;;;18.20;70.90;;;;;;5019531;28;20476;-72
2022/05/23 00:09:05;;;;;;;5.80;2.63;;;18.20;70.90;;;;;;5017308;28;20544;-71
2022/05/23 00:11:33;;;;;;;5.37;2.80;;;18.20;70.80;;;;;;5016172;28;20977;-71
2022/05/23 00:14:02;;;;;;;5.40;2.77;;;18.20;70.70;;;;;;5016411;28;20536;-69
2022/05/23 00:16:35;;;;;;;4.90;2.70;;;18.20;70.70;;;;;;5016907;28;20476;-73
2022/05/23 00:19:05;;;;;;;6.00;3.10;;;18.20;70.70;;;;;;5022769;28;20488;-71
2022/05/23 00:21:33;;;;;;;8.40;2.70;;;18.10;70.60;;;;;;5021535;28;20460;-71
2022/05/23 00:24:00;;;;;;;4.50;2.37;;;18.10;70.40;;;;;;5018820;28;20848;-72
2022/05/23 00:26:28;;;;;;;4.90;2.90;;;18.10;70.50;;;;;;5017449;28;20463;-71
2022/05/23 00:28:56;;;;;;;4.90;2.60;;;18.00;70.50;;;;;;5019016;28;20464;-70
2022/05/23 00:31:24;;;;;;;4.90;2.43;;;18.00;70.40;;;;;;5019096;28;20476;-71
2022/05/23 00:36:39;;;;;;;6.57;3.30;;;18.00;70.30;;;;;;5018048;28;20488;-70
2022/05/23 00:39:08;;;;;;;5.23;2.60;;;17.90;70.30;;;;;;5013581;28;20464;-71
2022/05/23 00:44:27;;;;;;;4.63;2.23;;;17.80;70.30;;;;;;5020582;28;20961;-71
2022/05/23 00:46:58;;;;;;;5.10;3.00;;;17.80;70.30;;;;;;5020144;28;20476;-71
2022/05/23 00:49:29;;;;;;;7.33;2.87;;;17.80;70.30;;;;;;5021619;28;20461;-71
2022/05/23 00:52:03;;;;;;;7.20;3.57;;;17.80;70.30;;;;;;5015809;28;20475;-71
2022/05/23 00:54:36;;;;;;;6.00;2.47;;;17.70;70.20;;;;;;5016211;28;21000;-71
2022/05/23 00:57:12;;;;;;;5.47;2.60;;;17.70;70.20;;;;;;5020265;28;21063;-72
2022/05/23 00:59:41;;;;;;;4.40;2.37;;;17.60;70.30;;;;;;5019850;28;20480;-72
2022/05/23 01:02:13;;;;;;;4.90;2.37;;;17.60;70.30;;;;;;5016432;28;20502;-72
2022/05/23 01:04:41;;;;;;;4.03;2.10;;;17.60;70.20;;;;;;5035346;28;20481;-71
2022/05/23 01:07:12;;;;;;;5.90;2.70;;;17.60;70.40;;;;;;5023733;28;20480;-72
2022/05/23 01:09:40;;;;;;;8.17;2.60;;;17.60;70.20;;;;;;5017988;28;20444;-71
2022/05/23 01:12:10;;;;;;;5.53;2.60;;;17.50;70.40;;;;;;5017400;28;20462;-72
2022/05/23 01:14:50;;;;;;;7.77;3.00;;;17.50;70.40;;;;;;5018142;28;20492;-72
2022/05/23 01:17:19;;;;;;;6.40;3.23;;;17.50;70.40;;;;;;5017110;28;20472;-72
2022/05/23 01:19:47;;;;;;;5.73;3.23;;;17.50;70.40;;;;;;5020748;28;21014;-71
2022/05/23 01:22:24;;;;;;;5.53;3.13;;;17.50;70.40;;;;;;5017346;28;20479;-72
2022/05/23 01:24:58;;;;;;;4.70;2.70;;;17.40;70.40;;;;;;5032280;28;20513;-71
2022/05/23 01:27:31;;;;;;;5.20;3.10;;;17.40;70.40;;;;;;5011925;28;20585;-71
2022/05/23 01:30:01;;;;;;;10.53;3.73;;;17.40;70.40;;;;;;5022175;28;20522;-71
2022/05/23 01:32:29;;;;;;;6.70;3.17;;;17.30;70.20;;;;;;5029232;28;20558;-71
2022/05/23 01:34:58;;;;;;;5.80;2.93;;;17.10;70.30;;;;;;5029418;28;20461;-71
2022/05/23 01:37:27;;;;;;;8.93;3.40;;;17.00;70.40;;;;;;5017761;28;21022;-69
2022/05/23 01:40:00;;;;;;;9.23;3.17;;;17.00;70.80;;;;;;5023575;28;20559;-70
2022/05/23 01:42:51;;;;;;;7.00;3.10;;;17.00;70.90;;;;;;5029228;28;20452;-71
2022/05/23 01:45:22;;;;;;;5.60;2.60;;;17.10;71.10;;;;;;5014372;28;20461;-71
2022/05/23 01:47:51;;;;;;;8.60;3.17;;;17.10;71.10;;;;;;5023612;28;20989;-71
2022/05/23 01:50:21;;;;;;;6.17;2.93;;;17.20;71.20;;;;;;5022503;28;20490;-72
2022/05/23 01:52:53;;;;;;;5.70;3.20;;;17.20;71.10;;;;;;5016947;28;20530;-72
2022/05/23 01:55:27;;;;;;;8.00;3.60;;;17.30;71.10;;;;;;5013756;28;20456;-71
2022/05/23 02:01:12;;;;;;;6.43;3.30;;;17.30;71.10;;;;;;5023550;28;20565;-70
2022/05/23 02:01:15;;;;;;;8.13;3.33;;;17.30;71.10;;;;;;5010870;28;20900;-72
2022/05/23 02:03:50;;;;;;;6.13;3.20;;;17.30;71.00;;;;;;5019982;28;20890;-70
2022/05/23 02:06:19;;;;;;;5.00;2.87;;;17.30;71.10;;;;;;5032596;28;20465;-71
2022/05/23 02:08:51;;;;;;;6.27;3.20;;;17.30;71.10;;;;;;5015896;28;20457;-72
2022/05/23 02:11:21;;;;;;;5.33;2.80;;;17.40;71.10;;;;;;5033248;28;20475;-71
2022/05/23 02:13:51;;;;;;;6.10;2.90;;;17.40;71.10;;;;;;5031748;28;20463;-71
2022/05/23 02:16:27;;;;;;;5.30;2.83;;;17.40;71.00;;;;;;5033905;28;20563;-69
2022/05/23 02:19:02;;;;;;;6.40;3.00;;;17.40;71.00;;;;;;5019399;28;20563;-70
2022/05/23 02:21:31;;;;;;;7.00;3.80;;;17.40;70.90;;;;;;5018738;28;20602;-71
2022/05/23 02:24:03;;;;;;;5.13;3.13;;;17.40;70.90;;;;;;5024108;28;20483;-71
2022/05/23 02:26:31;;;;;;;6.80;3.50;;;17.40;70.80;;;;;;5019277;28;20460;-71
2022/05/23 02:29:05;;;;;;;11.10;4.90;;;17.40;70.80;;;;;;5015932;28;20468;-71
2022/05/23 02:31:34;;;;;;;7.50;4.10;;;17.30;70.80;;;;;;5020059;28;20570;-71
2022/05/23 02:34:12;;;;;;;7.30;3.83;;;17.30;70.80;;;;;;5017495;28;20460;-72
2022/05/23 02:36:45;;;;;;;9.60;4.13;;;17.30;70.70;;;;;;5015886;28;20515;-72
2022/05/23 02:39:14;;;;;;;8.47;3.80;;;17.30;70.60;;;;;;5012913;28;20473;-72
2022/05/23 02:41:48;;;;;;;6.60;3.80;;;17.20;70.60;;;;;;5015531;28;20460;-72
2022/05/23 02:44:20;;;;;;;9.20;4.87;;;17.20;70.70;;;;;;5037519;28;20467;-71
2022/05/23 02:46:48;;;;;;;7.60;5.07;;;17.20;70.70;;;;;;5021187;28;20460;-71
2022/05/23 02:49:19;;;;;;;8.97;5.30;;;17.20;70.80;;;;;;5020949;28;20460;-71
2022/05/23 02:51:50;;;;;;;9.07;5.83;;;17.20;70.80;;;;;;5021825;28;20456;-71
2022/05/23 02:54:19;;;;;;;8.70;4.23;;;17.20;70.70;;;;;;5020025;28;20488;-72
2022/05/23 02:56:54;;;;;;;7.50;4.47;;;17.20;70.60;;;;;;5030732;28;20479;-72
2022/05/23 02:59:25;;;;;;;7.70;4.23;;;17.10;70.70;;;;;;5016330;28;20476;-71
2022/05/23 03:04:49;;;;;;;8.40;4.77;;;17.10;70.80;;;;;;5015690;28;20518;-70
2022/05/23 03:07:19;;;;;;;7.80;4.27;;;17.20;70.80;;;;;;5018643;28;20615;-71
2022/05/23 03:10:01;;;;;;;7.63;3.73;;;17.20;70.70;;;;;;5034622;28;20494;-71
2022/05/23 03:12:30;;;;;;;7.10;4.03;;;17.10;70.70;;;;;;5014324;28;20507;-71
2022/05/23 03:15:00;;;;;;;7.27;3.80;;;17.10;70.80;;;;;;5018401;28;20468;-72
2022/05/23 03:17:28;;;;;;;7.80;4.63;;;17.20;70.80;;;;;;5017751;28;20484;-72
2022/05/23 03:19:56;;;;;;;9.73;4.60;;;17.20;70.80;;;;;;5008937;28;20588;-71
2022/05/23 03:27:55;;;;;;;7.03;4.47;;;17.10;70.80;;;;;;5019719;28;20577;-72
2022/05/23 03:30:30;;;;;;;9.10;4.90;;;17.10;70.70;;;;;;5014317;28;20985;-72
2022/05/23 03:32:59;;;;;;;10.50;4.90;;;17.10;70.80;;;;;;5016126;28;20527;-71
2022/05/23 03:35:29;;;;;;;7.97;4.63;;;17.10;70.80;;;;;;5016702;28;20456;-71
2022/05/23 03:37:58;;;;;;;8.50;4.63;;;17.10;70.70;;;;;;5013425;28;20506;-71
2022/05/23 03:40:28;;;;;;;8.23;3.87;;;17.10;70.70;;;;;;5018837;28;20475;-71
2022/05/23 03:43:00;;;;;;;7.00;4.70;;;17.10;70.80;;;;;;5019915;28;20468;-71
2022/05/23 03:45:30;;;;;;;8.83;4.40;;;17.20;70.80;;;;;;5016886;28;20502;-71
2022/05/23 03:47:59;;;;;;;9.00;5.07;;;17.20;70.80;;;;;;5029773;28;20523;-71
2022/05/23 03:50:29;;;;;;;8.83;5.20;;;17.20;70.80;;;;;;5038384;28;20960;-71
2022/05/23 03:53:00;;;;;;;10.40;4.43;;;17.20;70.80;;;;;;5023458;28;20471;-71
2022/05/23 03:55:32;;;;;;;8.07;4.33;;;17.20;70.80;;;;;;5020334;28;20455;-71
2022/05/23 03:58:12;;;;;;;8.07;4.43;;;17.20;70.90;;;;;;5019833;28;20515;-71
2022/05/23 04:00:43;;;;;;;8.30;5.10;;;17.20;70.90;;;;;;5022070;28;20499;-71
2022/05/23 04:03:12;;;;;;;17.53;6.60;;;17.20;70.90;;;;;;5018983;28;20464;-72
2022/05/23 04:05:41;;;;;;;7.50;4.80;;;17.20;70.80;;;;;;5038411;28;20471;-71
2022/05/23 04:08:15;;;;;;;7.73;4.70;;;17.20;70.70;;;;;;5039898;28;20997;-71
2022/05/23 04:10:49;;;;;;;9.50;5.47;;;17.10;70.80;;;;;;5023597;28;20466;-71
2022/05/23 04:13:17;;;;;;;8.17;5.40;;;17.10;70.60;;;;;;5016344;28;20598;-71
2022/05/23 04:15:47;;;;;;;11.20;5.20;;;17.00;70.80;;;;;;5013336;28;20560;-71
2022/05/23 04:18:15;;;;;;;9.10;5.20;;;17.00;70.90;;;;;;5020253;28;20484;-71
2022/05/23 04:20:44;;;;;;;10.23;5.13;;;17.00;70.90;;;;;;5020783;28;20481;-71
2022/05/23 04:23:18;;;;;;;8.30;5.60;;;16.90;71.00;;;;;;5022090;28;20468;-71
2022/05/23 04:25:49;;;;;;;7.57;4.27;;;16.90;71.00;;;;;;5020658;28;20555;-71
2022/05/23 04:28:20;;;;;;;8.90;6.20;;;16.90;71.20;;;;;;5018198;28;21028;-71
2022/05/23 04:30:50;;;;;;;8.43;5.60;;;16.90;71.10;;;;;;5033739;28;20503;-71
2022/05/23 04:36:08;;;;;;;12.30;5.47;;;17.00;71.10;;;;;;5035442;28;20471;-71
2022/05/23 04:38:43;;;;;;;8.13;5.30;;;17.00;71.20;;;;;;5025866;28;20558;-72
2022/05/23 04:41:12;;;;;;;13.03;5.90;;;17.10;71.20;;;;;;5024421;28;20563;-71
2022/05/23 04:43:56;;;;;;;9.00;6.13;;;17.10;71.30;;;;;;5021992;28;20504;-71
2022/05/23 04:46:27;;;;;;;10.40;5.63;;;17.20;71.30;;;;;;5036254;28;20910;-71
2022/05/23 04:52:07;;;;;;;8.10;5.30;;;17.20;71.50;;;;;;5017763;28;21011;-71
2022/05/23 04:54:41;;;;;;;8.13;5.53;;;17.20;71.60;;;;;;5018244;28;20980;-71
2022/05/23 04:57:11;;;;;;;10.03;5.77;;;17.20;71.70;;;;;;5025383;28;20842;-71
2022/05/23 04:59:40;;;;;;;10.23;6.07;;;17.20;71.80;;;;;;5023365;28;20547;-71
2022/05/23 05:02:21;;;;;;;12.40;6.07;;;17.20;71.80;;;;;;5022759;28;20563;-71
2022/05/23 05:04:54;;;;;;;9.10;6.03;;;17.20;71.80;;;;;;5021259;28;20471;-71
2022/05/23 05:07:22;;;;;;;9.83;5.93;;;17.20;71.90;;;;;;5023496;28;20479;-71
2022/05/23 05:09:52;;;;;;;10.30;5.80;;;17.20;72.00;;;;;;5020065;28;20452;-71
2022/05/23 05:12:20;;;;;;;9.83;5.77;;;17.20;72.10;;;;;;5015847;28;20456;-71
2022/05/23 05:14:48;;;;;;;10.57;5.73;;;17.20;72.20;;;;;;5018833;28;20899;-71
2022/05/23 05:17:18;;;;;;;8.90;5.10;;;17.10;72.20;;;;;;5028658;28;20534;-71
2022/05/23 05:19:48;;;;;;;7.47;4.93;;;17.10;72.20;;;;;;5017815;28;20457;-71
2022/05/23 05:22:39;;;;;;;12.63;6.60;;;17.00;72.20;;;;;;5018177;28;20515;-71
2022/05/23 05:25:16;;;;;;;8.60;5.03;;;17.00;72.40;;;;;;5017178;28;20544;-71
2022/05/23 05:27:56;;;;;;;9.83;5.30;;;17.00;72.60;;;;;;5024423;28;20487;-70
2022/05/23 05:30:24;;;;;;;11.37;6.77;;;17.00;72.70;;;;;;5013679;28;20453;-71
2022/05/23 05:32:59;;;;;;;9.03;5.67;;;17.10;72.80;;;;;;5018618;28;20475;-71
2022/05/23 05:35:33;;;;;;;9.27;5.93;;;17.20;72.90;;;;;;5016860;28;20472;-71
2022/05/23 05:38:05;;;;;;;9.77;5.60;;;17.30;73.00;;;;;;5022073;28;20595;-71
2022/05/23 05:40:36;;;;;;;9.33;5.57;;;17.30;72.90;;;;;;5017357;28;20482;-70
2022/05/23 05:43:08;;;;;;;8.03;5.37;;;17.40;72.80;;;;;;5015133;28;20514;-70
2022/05/23 05:45:40;;;;;;;13.30;6.17;;;17.40;72.70;;;;;;5015899;28;20461;-71
2022/05/23 05:48:22;;;;;;;11.33;6.00;;;17.30;72.40;;;;;;5030818;28;20503;-71
2022/05/23 05:50:52;;;;;;;9.50;5.60;;;17.30;72.40;;;;;;5023205;28;20973;-71
2022/05/23 05:53:23;;;;;;;9.30;5.37;;;17.20;72.30;;;;;;5016822;28;20465;-71
2022/05/23 05:55:55;;;;;;;9.50;6.60;;;17.10;72.50;;;;;;5033701;28;20460;-71
2022/05/23 05:58:23;;;;;;;10.00;5.77;;;17.00;72.60;;;;;;5017674;28;20480;-71
2022/05/23 06:00:56;;;;;;;10.30;6.10;;;17.00;72.70;;;;;;5017940;28;20515;-71
2022/05/23 06:03:27;;;;;;;12.13;5.50;;;17.00;72.80;;;;;;5018673;28;20468;-71
2022/05/23 06:11:49;;;;;;;10.60;6.00;;;17.00;73.10;;;;;;5019701;28;20876;-71
2022/05/23 06:14:19;;;;;;;12.77;6.30;;;17.00;73.10;;;;;;5031594;28;20981;-71
2022/05/23 06:16:49;;;;;;;13.40;6.50;;;16.90;73.10;;;;;;5029850;28;20613;-70
2022/05/23 06:19:25;;;;;;;11.83;6.97;;;16.90;73.60;;;;;;5022496;28;20545;-70
2022/05/23 06:22:01;;;;;;;13.03;7.13;;;16.80;73.90;;;;;;5021125;28;20484;-70
2022/05/23 06:24:31;;;;;;;11.53;7.23;;;16.80;74.00;;;;;;5013515;28;20872;-70
2022/05/23 06:27:07;;;;;;;11.17;7.90;;;16.80;74.60;;;;;;5017012;28;20568;-70
2022/05/23 06:29:40;;;;;;;10.10;6.90;;;16.70;74.60;;;;;;5019763;28;20472;-70
2022/05/23 06:32:32;;;;;;;12.17;6.93;;;16.60;75.60;;;;;;5014148;28;20504;-70
2022/05/23 06:35:01;;;;;;;11.60;7.00;;;16.50;76.50;;;;;;5023236;28;20460;-70
2022/05/23 06:37:35;;;;;;;14.03;7.70;;;16.40;76.00;;;;;;5020481;28;21021;-70
2022/05/23 06:40:28;;;;;;;10.17;7.07;;;16.30;76.80;;;;;;5022504;28;20465;-70
2022/05/23 06:43:33;;;;;;;12.30;7.43;;;16.20;76.70;;;;;;5001591;28;20463;-71
2022/05/23 06:46:21;;;;;;;11.43;7.33;;;16.20;77.80;;;;;;5016578;28;20496;-70
2022/05/23 06:49:08;;;;;;;10.43;6.90;;;16.20;77.60;;;;;;5014429;28;20592;-70
2022/05/23 06:52:03;;;;;;;11.23;7.67;;;16.30;78.00;;;;;;5010043;28;20464;-72
2022/05/23 06:54:40;;;;;;;9.97;6.50;;;16.30;77.80;;;;;;5014179;28;20456;-71
2022/05/23 06:57:13;;;;;;;9.43;7.30;;;16.50;78.10;;;;;;5033031;28;20584;-72
2022/05/23 06:59:41;;;;;;;10.90;6.67;;;16.70;78.50;;;;;;5021735;28;20460;-70
2022/05/23 07:02:10;;;;;;;9.77;6.20;;;16.80;78.30;;;;;;5017491;28;20579;-71
2022/05/23 07:14:03;;;;;;;9.67;5.50;;;17.20;78.30;;;;;;5017416;28;20463;-72
2022/05/23 07:16:33;;;;;;;10.50;6.30;;;17.40;78.30;;;;;;5030261;28;20538;-72
2022/05/23 07:19:04;;;;;;;9.53;6.00;;;17.50;78.20;;;;;;5022390;28;20976;-71
2022/05/23 07:21:38;;;;;;;9.27;6.57;;;17.60;78.30;;;;;;5018263;28;20879;-72
2022/05/23 07:24:11;;;;;;;8.40;6.40;;;17.80;78.40;;;;;;5019733;28;21004;-72
2022/05/23 07:26:45;;;;;;;8.30;6.10;;;17.90;78.10;;;;;;5016121;28;20472;-72
2022/05/23 07:29:15;;;;;;;10.33;5.90;;;18.00;78.10;;;;;;5017079;28;20496;-72
2022/05/23 07:31:44;;;;;;;7.97;5.03;;;18.10;78.20;;;;;;5018247;28;20563;-71
2022/05/23 07:34:13;;;;;;;8.63;5.13;;;18.20;78.00;;;;;;5029748;28;20470;-72
2022/05/23 07:36:42;;;;;;;8.87;5.70;;;18.30;77.90;;;;;;5022870;28;20991;-72
2022/05/23 07:39:13;;;;;;;16.00;5.40;;;18.40;77.70;;;;;;5014275;28;20465;-72
2022/05/23 07:41:50;;;;;;;9.23;5.43;;;18.50;77.50;;;;;;5013881;28;20515;-72
2022/05/23 07:44:23;;;;;;;8.77;5.10;;;18.60;77.30;;;;;;5019569;28;20467;-72
2022/05/23 07:46:53;;;;;;;9.50;6.50;;;18.60;77.10;;;;;;5017284;28;20487;-72
2022/05/23 07:49:22;;;;;;;7.57;5.63;;;18.60;77.10;;;;;;5019343;28;20491;-72
2022/05/23 07:52:09;;;;;;;9.10;6.03;;;18.60;77.00;;;;;;5033131;28;20449;-72
2022/05/23 08:00:32;;;;;;;12.13;5.50;;;18.80;76.80;;;;;;5029026;28;20504;-72
2022/05/23 08:03:16;;;;;;;8.97;5.87;;;18.80;76.60;;;;;;5032954;28;21014;-72
2022/05/23 08:05:53;;;;;;;8.40;4.97;;;18.90;76.80;;;;;;5021421;28;20455;-72
2022/05/23 08:08:21;;;;;;;8.20;5.10;;;19.00;77.00;;;;;;5031068;28;20478;-72
2022/05/23 08:10:49;;;;;;;7.90;5.30;;;19.10;76.70;;;;;;5014919;28;20460;-72
2022/05/23 08:13:19;;;;;;;7.67;4.77;;;19.20;76.50;;;;;;5030753;28;20456;-72
2022/05/23 08:15:47;;;;;;;8.37;4.90;;;19.20;76.50;;;;;;5034813;28;20508;-72
2022/05/23 08:18:18;;;;;;;7.03;5.00;;;19.30;76.50;;;;;;5015768;28;20492;-72
2022/05/23 08:20:55;;;;;;;6.63;4.40;;;19.40;76.30;;;;;;5021959;28;20464;-72
2022/05/23 08:23:32;;;;;;;6.87;4.60;;;19.50;76.20;;;;;;5016279;28;20578;-72
2022/05/23 08:26:14;;;;;;;7.80;4.43;;;19.50;76.10;;;;;;5022726;28;20556;-72
2022/05/23 08:28:47;;;;;;;8.70;4.77;;;19.60;76.00;;;;;;5013286;28;20499;-72
2022/05/23 08:31:18;;;;;;;8.20;4.77;;;19.70;76.00;;;;;;5017783;28;20496;-72
2022/05/23 08:34:09;;;;;;;14.03;4.93;;;19.70;75.80;;;;;;5021590;28;20609;-72
2022/05/23 08:36:37;;;;;;;8.60;4.27;;;19.80;75.80;;;;;;5020065;28;21082;-72
2022/05/23 08:39:06;;;;;;;7.67;4.87;;;19.90;75.50;;;;;;5016550;28;20456;-72
2022/05/23 08:41:45;;;;;;;7.73;4.50;;;20.00;75.60;;;;;;5016382;28;20486;-72
2022/05/23 08:44:44;;;;;;;7.50;4.30;;;20.10;75.10;;;;;;5020766;28;20464;-72
2022/05/23 08:47:26;;;;;;;6.83;4.00;;;20.20;75.00;;;;;;5014559;28;20479;-75
2022/05/23 08:50:09;;;;;;;7.07;4.17;;;20.20;74.60;;;;;;5021699;28;20463;-72
2022/05/23 08:52:45;;;;;;;6.73;3.60;;;20.30;74.50;;;;;;5012891;28;20828;-72
2022/05/23 08:55:30;;;;;;;5.33;3.10;;;20.30;74.50;;;;;;5016953;28;20465;-72
2022/05/23 08:58:23;;;;;;;8.10;4.13;;;20.40;74.50;;;;;;5018804;28;20494;-71
2022/05/23 09:00:56;;;;;;;6.77;3.43;;;20.50;74.10;;;;;;5017476;28;20469;-71
2022/05/23 09:03:30;;;;;;;7.20;3.83;;;20.50;74.00;;;;;;5016653;28;20477;-71
2022/05/23 09:06:05;;;;;;;6.93;3.33;;;20.50;73.80;;;;;;5020390;28;20462;-71
2022/05/23 09:08:45;;;;;;;6.00;3.93;;;20.60;73.70;;;;;;5016905;28;21017;-71
2022/05/23 09:11:26;;;;;;;8.10;4.10;;;20.60;73.80;;;;;;5016997;28;21160;-71
2022/05/23 09:13:55;;;;;;;6.23;3.80;;;20.60;73.70;;;;;;5016050;28;20885;-71
2022/05/23 09:16:28;;;;;;;8.73;4.70;;;20.70;73.80;;;;;;5018921;28;20500;-71
2022/05/23 09:19:02;;;;;;;7.27;4.50;;;20.80;73.60;;;;;;5023043;28;20471;-74
2022/05/23 09:24:12;;;;;;;8.90;4.53;;;20.80;73.30;;;;;;5019153;28;20475;-71
2022/05/23 09:26:40;;;;;;;6.10;3.93;;;20.90;73.40;;;;;;5018776;28;20456;-71
2022/05/23 09:29:09;;;;;;;9.40;4.10;;;20.90;73.40;;;;;;5015088;28;21110;-71
2022/05/23 09:31:44;;;;;;;6.83;3.93;;;21.00;73.10;;;;;;5016800;28;21266;-71
2022/05/23 09:34:29;;;;;;;6.00;3.43;;;21.00;73.30;;;;;;5020498;28;20457;-71
2022/05/23 09:36:58;;;;;;;6.90;3.30;;;21.10;73.30;;;;;;5021989;28;20492;-71
2022/05/23 09:39:29;;;;;;;6.93;3.57;;;21.10;73.10;;;;;;5021923;28;20475;-71
2022/05/23 09:47:49;;;;;;;7.47;3.40;;;21.40;73.10;;;;;;5015987;28;20464;-71
2022/05/23 09:50:35;;;;;;;5.27;3.20;;;21.50;73.00;;;;;;5021233;28;20466;-71
2022/05/23 09:53:16;;;;;;;8.43;3.10;;;21.60;72.90;;;;;;5021758;28;20528;-71
2022/05/23 09:55:45;;;;;;;5.30;2.90;;;21.70;72.60;;;;;;5016792;28;20472;-71
2022/05/23 09:58:23;;;;;;;5.77;3.33;;;21.70;72.40;;;;;;5017336;28;20580;-71
2022/05/23 10:01:02;;;;;;;9.10;3.20;;;21.80;72.30;;;;;;5020620;28;20472;-71
2022/05/23 10:03:33;;;;;;;5.50;2.80;;;21.90;72.40;;;;;;5017865;28;20860;-71
2022/05/23 10:06:08;;;;;;;7.67;2.87;;;21.90;72.30;;;;;;5018249;28;20444;-71
2022/05/23 10:08:40;;;;;;;6.17;3.50;;;22.00;72.10;;;;;;5019556;28;20524;-71
2022/05/23 10:11:29;;;;;;;5.80;2.70;;;22.10;72.10;;;;;;5019245;28;21314;-71
2022/05/23 10:13:59;;;;;;;5.53;3.33;;;22.10;72.00;;;;;;5016031;28;20449;-71
2022/05/23 10:16:46;;;;;;;5.30;2.80;;;22.10;72.10;;;;;;5012579;28;21010;-71
2022/05/23 10:19:27;;;;;;;6.50;3.17;;;22.20;71.90;;;;;;5012808;28;20507;-72
2022/05/23 10:22:15;;;;;;;5.23;2.50;;;22.30;71.30;;;;;;5019222;28;20460;-71
2022/05/23 10:24:52;;;;;;;6.43;2.73;;;22.40;71.30;;;;;;5017798;28;20446;-71
2022/05/23 10:27:38;;;;;;;6.23;2.80;;;22.40;71.10;;;;;;5020691;28;20468;-71
2022/05/23 10:30:09;;;;;;;6.27;2.30;;;22.50;71.00;;;;;;5018052;28;20473;-71
2022/05/23 10:32:42;;;;;;;6.30;2.47;;;22.50;70.80;;;;;;5017395;28;20460;-71
2022/05/23 10:35:19;;;;;;;5.93;2.30;;;22.60;70.60;;;;;;5024256;28;20457;-71
2022/05/23 10:37:47;;;;;;;6.40;2.30;;;22.60;70.50;;;;;;5022097;28;20475;-71
2022/05/23 10:43:15;;;;;;;7.00;2.87;;;22.70;70.10;;;;;;5016934;28;20476;-71
2022/05/23 10:45:47;;;;;;;9.13;2.70;;;22.80;69.90;;;;;;5022476;28;20525;-71
2022/05/23 10:48:27;;;;;;;7.10;2.70;;;22.90;69.90;;;;;;5025594;28;20479;-71
2022/05/23 10:51:05;;;;;;;5.47;2.60;;;22.90;69.80;;;;;;5019297;28;20445;-71
2022/05/23 10:53:44;;;;;;;6.93;2.47;;;23.00;69.60;;;;;;5024294;28;20538;-71
2022/05/23 10:56:21;;;;;;;5.10;2.43;;;23.00;69.30;;;;;;5021085;28;20839;-71
2022/05/23 10:58:55;;;;;;;4.70;2.20;;;23.00;69.30;;;;;;5020400;28;20467;-71
2022/05/23 11:01:44;;;;;;;5.53;2.43;;;23.10;69.20;;;;;;5020017;28;20482;-71
2022/05/23 11:04:26;;;;;;;6.10;2.70;;;23.10;69.10;;;;;;5019752;28;20480;-71
2022/05/23 11:07:09;;;;;;;5.37;2.40;;;23.20;68.90;;;;;;5021444;28;20825;-71
2022/05/23 11:09:45;;;;;;;7.63;2.40;;;23.30;68.70;;;;;;5020692;28;20445;-71
2022/05/23 11:12:22;;;;;;;7.27;3.00;;;23.40;68.10;;;;;;5018202;28;20449;-71
2022/05/23 11:15:14;;;;;;;6.93;2.50;;;23.40;68.20;;;;;;5017198;28;20452;-71
2022/05/23 11:17:49;;;;;;;5.07;2.83;;;23.50;68.20;;;;;;5016396;28;20486;-71
2022/05/23 11:20:22;;;;;;;5.43;2.37;;;23.60;68.40;;;;;;5020009;28;20998;-71
2022/05/23 11:22:57;;;;;;;8.50;2.50;;;23.70;68.40;;;;;;5017617;28;21346;-71
2022/05/23 11:25:29;;;;;;;5.27;2.63;;;23.70;68.10;;;;;;5020681;28;20550;-71
2022/05/23 11:33:48;;;;;;;9.93;3.00;;;23.80;68.10;;;;;;5018853;28;20508;-71
2022/05/23 11:36:24;;;;;;;6.60;2.50;;;23.90;68.30;;;;;;5016568;28;20565;-71
2022/05/23 11:38:54;;;;;;;5.13;2.50;;;23.90;68.20;;;;;;5018384;28;20484;-71
2022/05/23 11:41:41;;;;;;;7.50;3.27;;;23.90;68.10;;;;;;5020417;28;20473;-71
2022/05/23 11:44:57;;;;;;;5.47;2.47;;;23.90;68.00;;;;;;5015864;28;20582;-71
2022/05/23 11:47:27;;;;;;;5.43;2.90;;;23.90;67.80;;;;;;5017225;28;20482;-71
2022/05/23 11:50:16;;;;;;;10.30;3.43;;;23.80;68.10;;;;;;5016849;28;20675;-71
2022/05/23 11:52:48;;;;;;;9.07;2.90;;;23.80;68.00;;;;;;5017649;28;20464;-71
2022/05/23 11:55:49;;;;;;;5.53;2.40;;;23.80;68.00;;;;;;5015860;28;20451;-71
2022/05/23 11:58:22;;;;;;;6.73;3.03;;;23.80;67.90;;;;;;5019104;28;20486;-71
2022/05/23 12:01:04;;;;;;;8.40;3.10;;;23.90;67.90;;;;;;5020305;28;21344;-71
2022/05/23 12:04:06;;;;;;;7.90;3.60;;;24.00;67.90;;;;;;5019735;28;20470;-71
2022/05/23 12:06:38;;;;;;;8.37;3.40;;;24.10;67.80;;;;;;5024370;28;20463;-71
2022/05/23 12:09:24;;;;;;;7.03;3.00;;;24.20;67.90;;;;;;5024308;28;20473;-71
2022/05/23 12:11:53;;;;;;;6.73;2.67;;;24.20;68.20;;;;;;5026884;28;20471;-71
2022/05/23 12:14:44;;;;;;;9.67;3.30;;;24.30;68.10;;;;;;5024093;28;20491;-71
2022/05/23 12:17:26;;;;;;;6.70;3.63;;;24.30;68.20;;;;;;5022888;28;20995;-71
2022/05/23 12:19:57;;;;;;;6.53;2.90;;;24.40;68.10;;;;;;5017662;28;20848;-71
2022/05/23 12:22:33;;;;;;;5.33;3.20;;;24.40;68.10;;;;;;5026826;28;20512;-71
2022/05/23 12:25:18;;;;;;;5.90;3.47;;;24.40;68.20;;;;;;5021783;28;20485;-71
2022/05/23 12:28:20;;;;;;;5.33;3.07;;;24.40;68.30;;;;;;5020132;28;20486;-71
2022/05/23 12:31:14;;;;;;;6.47;3.60;;;24.40;68.30;;;;;;5023101;28;20485;-72
2022/05/23 12:33:51;;;;;;;7.17;4.73;;;24.30;68.40;;;;;;5023076;28;20481;-72
2022/05/23 12:36:22;;;;;;;8.80;3.80;;;24.30;68.40;;;;;;5026237;28;20450;-71
2022/05/23 12:39:05;;;;;;;9.53;4.10;;;24.30;68.30;;;;;;5026190;28;20482;-72
2022/05/23 12:41:48;;;;;;;7.23;3.17;;;24.30;68.10;;;;;;5025980;28;20535;-72
2022/05/23 12:44:59;;;;;;;6.30;3.70;;;24.30;68.10;;;;;;5026756;28;20469;-71
2022/05/23 12:48:20;;;;;;;8.67;3.70;;;24.30;68.10;;;;;;5026319;28;20476;-71
2022/05/23 12:51:00;;;;;;;5.73;3.20;;;24.20;68.30;;;;;;4947760;29;20462;-71
2022/05/23 12:53:40;;;;;;;6.20;3.77;;;24.20;68.20;;;;;;5014228;28;21384;-71
2022/05/23 12:56:46;;;;;;;14.20;3.90;;;24.20;68.30;;;;;;5024141;28;21224;-71
2022/05/23 12:59:37;;;;;;;7.10;3.47;;;24.20;68.10;;;;;;5016748;28;20474;-71
2022/05/23 13:02:11;;;;;;;7.80;3.37;;;24.10;68.20;;;;;;5021239;28;20548;-71
2022/05/23 13:04:47;;;;;;;8.70;3.43;;;24.10;68.20;;;;;;5022950;28;20484;-71
2022/05/23 13:07:22;;;;;;;6.20;3.53;;;24.10;68.20;;;;;;5023013;28;20829;-71
2022/05/23 13:09:53;;;;;;;7.00;3.47;;;24.10;68.20;;;;;;5019526;28;20467;-71
2022/05/23 13:12:26;;;;;;;6.40;3.33;;;24.10;68.10;;;;;;5025259;28;20463;-71
2022/05/23 13:14:56;;;;;;;7.63;3.67;;;24.00;68.00;;;;;;5027354;28;20464;-71
2022/05/23 13:17:30;;;;;;;5.67;3.43;;;24.00;68.10;;;;;;5024352;28;20473;-71
2022/05/23 13:22:45;;;;;;;9.23;4.03;;;23.90;68.20;;;;;;5024597;28;20469;-71
2022/05/23 13:25:14;;;;;;;5.50;3.10;;;23.80;68.20;;;;;;5026555;28;20888;-71
2022/05/23 13:27:46;;;;;;;5.93;3.50;;;23.80;68.30;;;;;;5018124;28;20484;-71
2022/05/23 13:30:25;;;;;;;10.80;3.97;;;23.70;68.50;;;;;;5024497;28;20570;-71
2022/05/23 13:33:14;;;;;;;7.03;3.70;;;23.70;68.70;;;;;;5019273;28;20451;-71
2022/05/23 13:35:43;;;;;;;6.90;3.93;;;23.60;68.80;;;;;;5023474;28;20468;-71
2022/05/23 13:38:20;;;;;;;6.90;3.93;;;23.60;68.80;;;;;;5025345;28;20484;-71
2022/05/23 13:40:51;;;;;;;6.70;3.97;;;23.50;68.90;;;;;;5024565;28;20451;-71
2022/05/23 13:43:23;;;;;;;7.57;4.10;;;23.50;69.20;;;;;;5023657;28;20461;-71
2022/05/23 13:46:00;;;;;;;12.53;3.80;;;23.40;69.20;;;;;;5020176;28;20484;-71
2022/05/23 13:48:34;;;;;;;7.40;4.27;;;23.40;69.40;;;;;;5021398;28;20851;-71
2022/05/23 13:51:08;;;;;;;8.03;4.40;;;23.40;69.60;;;;;;5021445;28;20509;-71
2022/05/23 13:53:42;;;;;;;7.80;3.60;;;23.40;69.70;;;;;;5025399;28;20454;-71
2022/05/23 13:56:11;;;;;;;6.87;3.70;;;23.40;69.90;;;;;;5022820;28;20903;-71
2022/05/23 13:58:45;;;;;;;7.20;3.50;;;23.40;70.00;;;;;;5021997;28;20475;-71
2022/05/23 14:01:22;;;;;;;6.47;3.57;;;23.40;70.10;;;;;;5023353;28;20472;-72
2022/05/23 14:03:56;;;;;;;7.83;3.97;;;23.40;70.30;;;;;;5027197;28;20885;-71
2022/05/23 14:06:30;;;;;;;7.60;3.93;;;23.40;70.20;;;;;;5019961;28;20497;-71
2022/05/23 14:09:02;;;;;;;5.87;3.60;;;23.40;70.30;;;;;;5019041;28;21023;-71
2022/05/23 14:11:33;;;;;;;10.53;3.93;;;23.40;70.30;;;;;;5024264;28;20537;-71
2022/05/23 14:14:11;;;;;;;9.73;3.60;;;23.40;70.50;;;;;;5024144;28;20461;-71
2022/05/23 14:16:40;;;;;;;7.27;3.70;;;23.30;70.60;;;;;;5019252;28;20495;-71
2022/05/23 14:19:22;;;;;;;7.63;3.47;;;23.30;70.80;;;;;;5018412;28;20462;-71
2022/05/23 14:22:03;;;;;;;6.93;4.13;;;23.20;70.90;;;;;;5024082;28;20448;-71
2022/05/23 14:24:40;;;;;;;6.70;4.07;;;23.20;71.00;;;;;;5021614;28;20462;-71
2022/05/23 14:27:26;;;;;;;10.37;4.07;;;23.20;71.10;;;;;;5021379;28;20483;-71